Time;durP1;ratioP1;P1;durP2;ratioP2;P2;SDS_P1;SDS_P2;PMS_P1;PMS_P2;Temp;Humidity;BMP_temperature;BMP_pressure;BME280_temperature;BME280_humidity;BME280_pressure;Samples;Min_cycle;Max_cycle;Signal;HPM_P1;HPM_P2
2021/10/21 00:01:58;;;;;;;3.73;3.43;;;16.10;99.90;;;;;;5026647;28;20186;-41
2021/10/21 00:04:24;;;;;;;4.17;3.77;;;16.10;99.90;;;;;;5012821;28;20198;-42
2021/10/21 00:06:50;;;;;;;3.43;3.23;;;16.10;99.90;;;;;;5026589;28;20190;-41
2021/10/21 00:09:16;;;;;;;3.43;3.00;;;16.10;99.90;;;;;;5027216;28;20433;-40
2021/10/21 00:11:42;;;;;;;3.73;3.40;;;16.10;99.90;;;;;;5026579;28;20353;-41
2021/10/21 00:14:08;;;;;;;5.03;3.40;;;16.10;99.90;;;;;;5026418;28;20193;-45
2021/10/21 00:16:33;;;;;;;3.83;3.47;;;16.10;99.90;;;;;;5024522;28;21004;-41
2021/10/21 00:18:59;;;;;;;5.70;3.63;;;16.10;99.90;;;;;;5017111;28;20218;-41
2021/10/21 00:21:25;;;;;;;5.00;2.93;;;16.10;99.90;;;;;;5024802;28;20263;-40
2021/10/21 00:23:50;;;;;;;4.80;3.50;;;16.10;99.90;;;;;;5026029;28;20190;-40
2021/10/21 00:26:16;;;;;;;4.67;3.30;;;16.10;99.90;;;;;;5026244;28;20175;-40
2021/10/21 00:28:42;;;;;;;4.87;3.30;;;16.10;99.90;;;;;;5027005;28;20190;-40
2021/10/21 00:31:08;;;;;;;6.70;3.70;;;16.00;99.90;;;;;;5026223;28;20436;-40
2021/10/21 00:33:34;;;;;;;4.40;4.00;;;16.00;99.90;;;;;;5019910;28;20225;-41
2021/10/21 00:35:59;;;;;;;3.57;3.27;;;16.00;99.90;;;;;;5022445;28;20344;-39
2021/10/21 00:38:25;;;;;;;4.23;3.10;;;15.90;99.90;;;;;;5026690;28;20955;-40
2021/10/21 00:40:50;;;;;;;7.63;4.33;;;15.90;99.90;;;;;;5026741;28;20688;-40
2021/10/21 00:43:17;;;;;;;4.67;3.53;;;15.80;99.90;;;;;;5025401;28;20197;-40
2021/10/21 00:45:43;;;;;;;5.30;3.77;;;15.80;99.90;;;;;;5025888;28;20233;-40
2021/10/21 00:48:09;;;;;;;4.87;3.60;;;15.70;99.90;;;;;;5022479;28;20577;-40
2021/10/21 00:50:36;;;;;;;4.53;3.70;;;15.60;99.90;;;;;;5018581;28;20789;-39
2021/10/21 00:53:03;;;;;;;4.37;3.37;;;15.60;99.90;;;;;;5025875;28;21066;-40
2021/10/21 00:55:30;;;;;;;4.90;3.80;;;15.50;99.90;;;;;;5025918;28;20839;-40
2021/10/21 00:57:57;;;;;;;5.20;3.53;;;15.40;99.90;;;;;;5025752;28;20992;-39
2021/10/21 01:00:23;;;;;;;6.13;3.70;;;15.40;99.90;;;;;;5026230;28;20964;-39
2021/10/21 01:02:49;;;;;;;6.63;3.60;;;15.30;99.90;;;;;;5025287;28;20417;-39
2021/10/21 01:05:15;;;;;;;3.63;3.13;;;15.30;99.90;;;;;;5019693;28;20447;-39
2021/10/21 01:07:41;;;;;;;4.70;3.47;;;15.30;99.90;;;;;;5025803;28;20494;-40
2021/10/21 01:10:08;;;;;;;5.40;2.73;;;15.30;99.90;;;;;;5026259;28;20486;-40
2021/10/21 01:12:35;;;;;;;4.43;3.33;;;15.30;99.90;;;;;;5025539;28;20198;-39
2021/10/21 01:15:21;;;;;;;4.27;3.00;;;15.30;99.90;;;;;;5023709;28;20556;-41
2021/10/21 01:17:48;;;;;;;3.50;2.57;;;15.30;99.90;;;;;;5025678;28;20555;-41
2021/10/21 01:20:14;;;;;;;4.10;2.87;;;15.40;99.90;;;;;;5016185;28;20453;-40
2021/10/21 01:22:41;;;;;;;3.97;2.50;;;15.30;99.90;;;;;;5025611;28;20482;-39
2021/10/21 01:25:07;;;;;;;2.90;2.50;;;15.40;99.90;;;;;;5024638;28;20271;-39
2021/10/21 01:27:33;;;;;;;3.97;2.60;;;15.40;99.90;;;;;;5025821;28;20695;-39
2021/10/21 01:29:59;;;;;;;3.97;2.73;;;15.30;99.90;;;;;;5025589;28;20798;-42
2021/10/21 01:32:26;;;;;;;2.77;2.50;;;15.30;99.90;;;;;;5025789;28;20713;-41
2021/10/21 01:34:53;;;;;;;6.30;3.20;;;15.30;99.90;;;;;;5014682;28;20576;-39
2021/10/21 01:37:18;;;;;;;2.50;2.30;;;15.30;99.90;;;;;;5028140;28;20467;-40
2021/10/21 01:39:45;;;;;;;3.83;2.30;;;15.30;99.90;;;;;;5029455;28;20430;-40
2021/10/21 01:42:11;;;;;;;3.70;2.30;;;15.30;99.90;;;;;;5029733;28;20280;-40
2021/10/21 01:44:36;;;;;;;4.33;2.07;;;15.30;99.90;;;;;;5028928;28;20532;-39
2021/10/21 01:47:02;;;;;;;2.90;2.20;;;15.30;99.90;;;;;;5029632;28;20429;-40
2021/10/21 01:49:28;;;;;;;3.87;2.27;;;15.30;99.90;;;;;;5021408;28;20205;-43
2021/10/21 01:51:54;;;;;;;2.63;2.00;;;15.30;99.90;;;;;;5023774;28;20761;-39
2021/10/21 01:54:20;;;;;;;2.47;2.10;;;15.30;99.90;;;;;;5028397;28;20671;-40
2021/10/21 01:56:46;;;;;;;4.00;1.80;;;15.30;99.90;;;;;;5029399;28;20214;-40
2021/10/21 01:59:12;;;;;;;2.43;1.83;;;15.20;99.90;;;;;;5029562;28;20191;-39
2021/10/21 02:01:37;;;;;;;3.30;2.00;;;15.20;99.90;;;;;;5029130;28;20425;-39
2021/10/21 02:04:04;;;;;;;3.37;2.10;;;15.20;99.90;;;;;;5022397;28;20768;-39
2021/10/21 02:06:29;;;;;;;2.30;1.50;;;15.10;99.90;;;;;;5022591;28;20556;-40
2021/10/21 02:08:55;;;;;;;1.77;1.30;;;15.10;99.90;;;;;;5027538;28;20837;-40
2021/10/21 02:11:21;;;;;;;1.77;1.20;;;15.10;99.90;;;;;;5028875;28;20197;-42
2021/10/21 02:13:47;;;;;;;1.63;0.97;;;15.10;99.90;;;;;;5028706;28;20194;-41
2021/10/21 02:16:13;;;;;;;4.03;1.73;;;15.10;99.90;;;;;;5027437;28;20210;-40
2021/10/21 02:18:38;;;;;;;3.40;1.73;;;15.00;99.90;;;;;;5026588;28;20783;-42
2021/10/21 02:21:04;;;;;;;2.90;0.90;;;14.90;99.90;;;;;;5022986;28;20425;-41
2021/10/21 02:23:30;;;;;;;1.27;0.80;;;14.90;99.90;;;;;;5026818;28;20278;-40
2021/10/21 02:25:55;;;;;;;1.63;1.00;;;14.80;99.90;;;;;;5028964;28;20761;-40
2021/10/21 02:28:21;;;;;;;1.43;0.87;;;14.80;99.90;;;;;;5028771;28;20207;-40
2021/10/21 02:30:47;;;;;;;3.30;1.70;;;14.70;99.90;;;;;;5028783;28;20193;-39
2021/10/21 02:33:13;;;;;;;6.60;1.33;;;14.60;99.90;;;;;;5027967;28;20194;-40
2021/10/21 02:35:39;;;;;;;2.40;0.90;;;14.50;99.90;;;;;;5016465;28;20214;-39
2021/10/21 02:38:05;;;;;;;2.20;0.80;;;14.40;99.90;;;;;;5028159;28;20421;-40
2021/10/21 02:40:31;;;;;;;5.30;1.00;;;14.30;99.90;;;;;;5028427;28;20444;-40
2021/10/21 02:42:57;;;;;;;2.13;0.73;;;14.20;99.90;;;;;;5027662;28;20205;-39
2021/10/21 02:45:23;;;;;;;6.50;1.27;;;14.10;99.90;;;;;;5028870;28;20760;-40
2021/10/21 02:47:49;;;;;;;7.47;1.77;;;14.00;99.90;;;;;;5026856;28;20941;-39
2021/10/21 02:50:14;;;;;;;3.70;0.80;;;14.00;99.90;;;;;;5018502;28;20187;-39
2021/10/21 02:52:41;;;;;;;2.37;1.03;;;14.00;99.90;;;;;;5027680;28;20425;-39
2021/10/21 02:55:07;;;;;;;2.83;0.70;;;14.00;99.90;;;;;;5027410;28;20707;-40
2021/10/21 02:57:33;;;;;;;8.03;1.60;;;14.10;99.90;;;;;;5027879;28;20437;-40
2021/10/21 02:59:59;;;;;;;1.90;0.70;;;14.00;99.90;;;;;;5028233;28;20806;-42
2021/10/21 03:02:25;;;;;;;3.60;1.00;;;14.00;99.90;;;;;;5027886;28;20417;-39
2021/10/21 03:04:51;;;;;;;2.50;0.83;;;14.00;99.90;;;;;;5017280;28;20199;-39
2021/10/21 03:07:16;;;;;;;5.03;1.20;;;14.00;99.90;;;;;;5026678;28;20727;-39
2021/10/21 03:09:42;;;;;;;1.73;1.20;;;13.90;99.90;;;;;;5028017;28;20616;-40
2021/10/21 03:12:08;;;;;;;4.50;1.00;;;13.90;99.90;;;;;;5028130;28;20642;-42
2021/10/21 03:14:34;;;;;;;4.50;0.70;;;14.00;99.90;;;;;;5025721;28;20557;-39
2021/10/21 03:16:59;;;;;;;4.53;1.07;;;14.00;99.90;;;;;;5027872;28;20580;-40
2021/10/21 03:19:25;;;;;;;5.77;0.80;;;14.00;99.90;;;;;;5023471;28;20213;-40
2021/10/21 03:21:50;;;;;;;2.23;0.80;;;14.00;99.90;;;;;;5023477;28;20193;-39
2021/10/21 03:24:16;;;;;;;3.00;1.77;;;13.90;99.90;;;;;;5026623;28;20205;-41
2021/10/21 03:26:42;;;;;;;3.00;1.20;;;14.00;99.90;;;;;;5027681;28;20716;-39
2021/10/21 03:29:07;;;;;;;5.00;0.83;;;14.00;99.90;;;;;;5027387;28;20650;-39
2021/10/21 03:31:33;;;;;;;5.97;1.10;;;14.00;99.90;;;;;;5027767;28;20192;-40
2021/10/21 03:33:59;;;;;;;5.67;1.20;;;13.90;99.90;;;;;;5025893;28;20604;-39
2021/10/21 03:36:25;;;;;;;3.83;1.10;;;13.90;99.90;;;;;;5019256;28;20492;-40
2021/10/21 03:38:51;;;;;;;2.30;1.00;;;13.90;99.90;;;;;;5027760;28;20468;-40
2021/10/21 03:41:17;;;;;;;5.10;1.73;;;13.80;99.90;;;;;;5027532;28;20645;-40
2021/10/21 03:43:43;;;;;;;1.43;0.87;;;13.80;99.90;;;;;;5026951;28;20441;-40
2021/10/21 03:46:09;;;;;;;5.83;0.97;;;13.60;99.90;;;;;;5027264;28;20527;-39
2021/10/21 03:48:34;;;;;;;4.53;0.93;;;13.60;99.90;;;;;;5027691;28;20316;-39
2021/10/21 03:51:00;;;;;;;9.23;1.17;;;13.60;99.90;;;;;;5017387;28;20183;-39
2021/10/21 03:53:26;;;;;;;4.50;1.00;;;13.60;99.90;;;;;;5026480;28;20576;-40
2021/10/21 03:55:52;;;;;;;1.67;1.00;;;13.60;99.90;;;;;;5026823;28;20620;-40
2021/10/21 03:58:18;;;;;;;2.93;0.90;;;13.60;99.90;;;;;;5027220;28;20224;-41
2021/10/21 04:00:45;;;;;;;2.43;0.87;;;13.60;99.90;;;;;;5026519;28;20417;-40
2021/10/21 04:03:11;;;;;;;2.13;0.90;;;13.60;99.90;;;;;;5026409;28;20343;-40
2021/10/21 04:05:38;;;;;;;5.03;1.10;;;13.60;99.90;;;;;;5019068;28;21043;-39
2021/10/21 04:08:04;;;;;;;2.33;0.70;;;13.70;99.90;;;;;;5026726;28;20425;-39
2021/10/21 04:10:30;;;;;;;3.10;1.33;;;13.70;99.90;;;;;;5026785;28;20769;-40
2021/10/21 04:12:56;;;;;;;2.00;1.30;;;13.80;99.90;;;;;;5026475;28;20928;-39
2021/10/21 04:15:25;;;;;;;2.37;1.07;;;13.80;99.90;;;;;;5024890;28;20247;-40
2021/10/21 04:17:54;;;;;;;3.67;1.07;;;13.80;99.90;;;;;;5026846;28;20591;-39
2021/10/21 04:20:21;;;;;;;3.53;0.77;;;13.90;99.90;;;;;;5017837;28;20450;-39
2021/10/21 04:22:47;;;;;;;2.60;0.97;;;13.80;99.90;;;;;;5019075;28;20421;-39
2021/10/21 04:25:12;;;;;;;1.57;0.70;;;13.80;99.90;;;;;;5027458;28;20433;-40
2021/10/21 04:27:38;;;;;;;2.23;0.80;;;13.80;99.90;;;;;;5024402;28;20795;-39
2021/10/21 04:30:05;;;;;;;7.57;0.80;;;13.80;99.90;;;;;;5023850;28;20191;-41
2021/10/21 04:32:31;;;;;;;2.40;1.43;;;13.80;99.90;;;;;;5026293;28;20198;-40
2021/10/21 04:34:58;;;;;;;1.43;0.77;;;13.80;99.90;;;;;;5034591;28;21196;-40
2021/10/21 04:37:25;;;;;;;3.40;0.93;;;13.80;99.90;;;;;;5020685;28;20189;-39
2021/10/21 04:39:51;;;;;;;2.07;0.80;;;13.80;99.90;;;;;;5026802;28;20468;-39
2021/10/21 04:42:16;;;;;;;2.57;0.90;;;13.80;99.90;;;;;;5026556;28;20885;-40
2021/10/21 04:44:43;;;;;;;2.60;0.90;;;13.70;99.90;;;;;;5025969;28;20437;-42
2021/10/21 04:47:09;;;;;;;1.63;0.80;;;13.70;99.90;;;;;;5041566;28;20195;-39
2021/10/21 04:49:35;;;;;;;3.00;0.70;;;13.70;99.90;;;;;;5024535;28;20433;-39
2021/10/21 04:52:01;;;;;;;2.53;0.70;;;13.70;99.90;;;;;;5015251;28;20835;-39
2021/10/21 04:54:27;;;;;;;2.47;1.00;;;13.70;99.90;;;;;;5023994;28;20178;-40
2021/10/21 04:56:53;;;;;;;1.10;0.33;;;13.70;99.90;;;;;;5025844;28;20862;-39
2021/10/21 04:59:18;;;;;;;1.50;0.87;;;13.70;99.90;;;;;;5026155;28;20192;-41
2021/10/21 05:01:44;;;;;;;2.73;0.60;;;13.70;99.90;;;;;;5024971;28;20460;-39
2021/10/21 05:04:10;;;;;;;1.10;0.60;;;13.70;99.90;;;;;;5024910;28;20182;-41
2021/10/21 05:06:37;;;;;;;1.77;0.70;;;13.80;99.90;;;;;;5015220;28;20304;-40
2021/10/21 05:09:03;;;;;;;2.37;0.70;;;13.80;99.90;;;;;;5024362;28;20511;-40
2021/10/21 05:11:28;;;;;;;4.30;0.80;;;13.80;99.90;;;;;;5025175;28;20210;-40
2021/10/21 05:13:54;;;;;;;1.20;0.60;;;13.70;99.90;;;;;;5024905;28;20451;-40
2021/10/21 05:16:20;;;;;;;1.23;0.73;;;13.70;99.90;;;;;;5023420;28;20628;-39
2021/10/21 05:18:45;;;;;;;1.33;0.60;;;13.60;99.90;;;;;;5027131;28;20628;-39
2021/10/21 05:21:11;;;;;;;1.07;0.40;;;13.60;99.90;;;;;;5020912;28;20438;-39
2021/10/21 05:23:37;;;;;;;6.07;0.70;;;13.50;99.90;;;;;;5024351;28;20186;-39
2021/10/21 05:26:03;;;;;;;2.17;0.70;;;13.50;99.90;;;;;;5025422;28;20213;-39
2021/10/21 05:28:28;;;;;;;2.20;0.50;;;13.50;99.90;;;;;;5025754;28;20235;-39
2021/10/21 05:30:54;;;;;;;0.57;0.50;;;13.50;99.90;;;;;;5026261;28;20401;-39
2021/10/21 05:33:23;;;;;;;3.90;0.80;;;13.50;99.90;;;;;;5024713;28;20252;-40
2021/10/21 05:35:49;;;;;;;0.53;0.53;;;13.40;99.90;;;;;;5017896;28;20214;-40
2021/10/21 05:38:15;;;;;;;1.80;0.50;;;13.30;99.90;;;;;;5022522;28;20479;-39
2021/10/21 05:40:41;;;;;;;2.10;0.90;;;13.20;99.90;;;;;;5025277;28;20923;-39
2021/10/21 05:43:07;;;;;;;0.60;0.60;;;13.20;99.90;;;;;;5031144;28;20776;-39
2021/10/21 05:45:32;;;;;;;1.00;0.77;;;13.20;99.90;;;;;;5040234;28;20280;-43
2021/10/21 05:47:58;;;;;;;2.40;0.83;;;13.10;99.90;;;;;;5045545;28;20185;-40
2021/10/21 05:50:24;;;;;;;1.70;0.60;;;13.00;99.90;;;;;;5037640;28;20658;-40
2021/10/21 05:52:50;;;;;;;2.30;0.90;;;13.00;99.90;;;;;;5022478;28;20205;-40
2021/10/21 05:55:16;;;;;;;0.90;0.80;;;13.00;99.90;;;;;;5024642;28;20461;-39
2021/10/21 05:57:41;;;;;;;1.03;0.77;;;13.00;99.90;;;;;;5025190;28;20222;-40
2021/10/21 06:00:09;;;;;;;0.50;0.50;;;13.00;99.90;;;;;;5024789;28;20190;-39
2021/10/21 06:02:36;;;;;;;2.50;0.70;;;12.90;99.90;;;;;;5033554;28;20270;-40
2021/10/21 06:05:04;;;;;;;1.27;0.90;;;12.90;99.90;;;;;;5016767;28;20994;-43
2021/10/21 06:07:30;;;;;;;0.80;0.80;;;13.00;99.90;;;;;;5018025;28;20446;-41
2021/10/21 06:09:56;;;;;;;1.30;1.00;;;12.90;99.90;;;;;;5025738;28;20425;-39
2021/10/21 06:12:23;;;;;;;1.13;0.73;;;12.90;99.90;;;;;;5025168;28;20621;-39
2021/10/21 06:14:49;;;;;;;1.47;0.60;;;12.60;99.90;;;;;;5022677;28;20835;-39
2021/10/21 06:17:15;;;;;;;0.57;0.53;;;12.60;99.90;;;;;;5025036;28;20437;-40
2021/10/21 06:19:40;;;;;;;1.57;0.57;;;12.60;99.90;;;;;;5025317;28;20194;-39
2021/10/21 06:22:12;;;;;;;0.80;0.50;;;12.50;99.90;;;;;;5009635;28;20282;-39
2021/10/21 06:24:38;;;;;;;1.43;0.67;;;12.40;99.90;;;;;;5026824;28;20285;-39
2021/10/21 06:27:04;;;;;;;1.53;0.70;;;12.30;99.90;;;;;;5028929;28;20574;-40
2021/10/21 06:29:30;;;;;;;1.33;0.60;;;12.30;99.90;;;;;;5028498;28;20186;-40
2021/10/21 06:31:56;;;;;;;3.70;0.70;;;12.20;99.90;;;;;;5028766;28;21058;-40
2021/10/21 06:34:22;;;;;;;1.93;0.90;;;12.30;99.90;;;;;;5027925;28;20502;-39
2021/10/21 06:36:48;;;;;;;2.53;1.60;;;12.10;99.90;;;;;;5019665;28;20191;-40
2021/10/21 06:39:13;;;;;;;2.80;1.40;;;12.10;99.90;;;;;;5025004;28;20201;-40
2021/10/21 06:41:39;;;;;;;3.00;2.30;;;12.10;99.90;;;;;;5028345;28;20417;-40
2021/10/21 06:44:06;;;;;;;3.00;2.80;;;12.10;99.90;;;;;;5026260;28;20243;-40
2021/10/21 06:46:33;;;;;;;7.27;2.73;;;12.10;99.90;;;;;;5028290;28;20433;-40
2021/10/21 06:48:59;;;;;;;4.07;3.77;;;12.10;99.90;;;;;;5028792;28;20461;-40
2021/10/21 06:51:25;;;;;;;3.00;2.67;;;12.10;99.90;;;;;;5021227;28;20445;-40
2021/10/21 06:53:51;;;;;;;3.30;3.00;;;12.10;99.90;;;;;;5020639;28;20436;-42
2021/10/21 06:56:17;;;;;;;4.00;2.80;;;12.00;99.90;;;;;;5028184;28;20497;-40
2021/10/21 06:58:42;;;;;;;3.50;3.20;;;12.00;99.90;;;;;;5027823;28;20477;-40
2021/10/21 07:01:08;;;;;;;3.47;3.17;;;11.90;99.90;;;;;;5028409;28;20278;-40
2021/10/21 07:03:34;;;;;;;4.03;3.57;;;11.90;99.90;;;;;;5027583;28;20201;-41
2021/10/21 07:05:59;;;;;;;2.80;2.40;;;11.90;99.90;;;;;;5021954;28;20438;-39
2021/10/21 07:08:26;;;;;;;2.50;1.67;;;12.10;99.90;;;;;;5024927;28;20190;-40
2021/10/21 07:10:53;;;;;;;1.60;1.20;;;12.00;99.90;;;;;;5028160;28;20645;-42
2021/10/21 07:13:19;;;;;;;1.57;1.40;;;11.90;99.90;;;;;;5026946;28;20623;-40
2021/10/21 07:15:44;;;;;;;2.23;1.20;;;11.80;99.90;;;;;;5025396;28;20479;-40
2021/10/21 07:18:11;;;;;;;2.77;0.87;;;11.90;99.90;;;;;;5028267;28;20445;-40
2021/10/21 07:20:37;;;;;;;1.50;0.87;;;11.90;99.90;;;;;;5034552;28;20671;-39
2021/10/21 07:23:02;;;;;;;1.67;0.73;;;11.90;99.90;;;;;;5017080;28;20436;-40
2021/10/21 07:25:28;;;;;;;1.70;0.80;;;11.60;99.90;;;;;;5028005;28;20202;-39
2021/10/21 07:27:55;;;;;;;0.90;0.70;;;11.50;99.90;;;;;;5027766;28;20195;-41
2021/10/21 07:30:21;;;;;;;0.80;0.60;;;11.40;99.90;;;;;;5027588;28;20421;-41
2021/10/21 07:32:47;;;;;;;1.83;0.80;;;11.40;99.90;;;;;;5027168;28;20428;-40
2021/10/21 07:35:12;;;;;;;0.70;0.63;;;11.40;99.90;;;;;;5026942;28;20241;-42
2021/10/21 07:37:39;;;;;;;1.33;0.80;;;11.40;99.90;;;;;;5016768;28;20190;-42
2021/10/21 07:40:07;;;;;;;4.60;1.00;;;11.40;99.90;;;;;;5027284;28;20191;-40
2021/10/21 07:42:34;;;;;;;1.20;1.03;;;11.40;99.90;;;;;;5027492;28;20428;-40
2021/10/21 07:45:00;;;;;;;2.07;1.27;;;11.40;99.90;;;;;;5025721;28;20444;-40
2021/10/21 07:47:26;;;;;;;3.57;1.40;;;11.40;99.90;;;;;;5028543;28;20437;-40
2021/10/21 07:49:52;;;;;;;3.50;1.00;;;11.40;99.90;;;;;;5047454;28;20451;-40
2021/10/21 07:52:18;;;;;;;4.10;1.93;;;11.40;99.90;;;;;;5025791;28;20536;-40
2021/10/21 07:54:45;;;;;;;2.23;1.30;;;11.40;99.90;;;;;;5026140;28;20289;-40
2021/10/21 07:57:13;;;;;;;3.17;1.60;;;11.40;99.90;;;;;;5027220;28;20449;-40
2021/10/21 07:59:39;;;;;;;3.90;1.40;;;11.40;99.90;;;;;;5027235;28;20581;-40
2021/10/21 08:02:04;;;;;;;3.03;1.40;;;11.40;99.90;;;;;;5027281;28;20425;-40
2021/10/21 08:04:34;;;;;;;1.70;1.27;;;11.20;99.90;;;;;;5026728;28;20978;-40
2021/10/21 08:07:00;;;;;;;2.40;0.97;;;11.60;99.90;;;;;;5021723;28;20198;-39
2021/10/21 08:09:31;;;;;;;3.00;1.47;;;11.50;99.90;;;;;;5025766;28;20428;-40
2021/10/21 08:11:58;;;;;;;5.07;1.47;;;11.60;99.90;;;;;;5030126;28;20432;-40
2021/10/21 08:14:24;;;;;;;3.27;1.33;;;11.50;99.90;;;;;;5046015;28;20904;-41
2021/10/21 08:16:51;;;;;;;4.33;2.30;;;11.60;99.90;;;;;;5043361;28;20857;-40
2021/10/21 08:19:17;;;;;;;5.33;1.80;;;11.50;99.90;;;;;;5046938;28;20421;-40
2021/10/21 08:21:45;;;;;;;6.83;2.20;;;11.50;99.90;;;;;;5022772;28;20450;-40
2021/10/21 08:24:10;;;;;;;9.20;3.23;;;11.40;99.90;;;;;;5022067;28;20840;-42
2021/10/21 08:26:37;;;;;;;6.20;2.60;;;11.50;99.90;;;;;;5026584;28;20435;-40
2021/10/21 08:29:03;;;;;;;8.50;2.70;;;11.20;99.90;;;;;;5026673;28;20281;-41
2021/10/21 08:31:29;;;;;;;4.40;1.77;;;11.30;99.90;;;;;;5025042;28;20524;-40
2021/10/21 08:33:55;;;;;;;7.20;2.60;;;11.10;99.90;;;;;;5026022;28;20194;-40
2021/10/21 08:36:24;;;;;;;3.90;1.73;;;11.20;99.90;;;;;;5024835;28;20526;-39
2021/10/21 08:38:51;;;;;;;5.70;2.40;;;11.20;99.90;;;;;;5018617;28;20199;-39
2021/10/21 08:41:18;;;;;;;7.03;2.10;;;11.30;99.90;;;;;;5026185;28;20429;-40
2021/10/21 08:43:45;;;;;;;13.20;2.53;;;11.30;99.90;;;;;;5025721;28;20425;-41
2021/10/21 08:46:13;;;;;;;6.53;2.00;;;11.20;99.90;;;;;;5026307;28;20429;-40
2021/10/21 08:48:44;;;;;;;5.33;1.93;;;11.20;99.90;;;;;;5026156;28;20737;-40
2021/10/21 08:51:10;;;;;;;6.97;2.30;;;11.50;99.90;;;;;;5025941;28;20915;-40
2021/10/21 08:53:36;;;;;;;5.80;2.00;;;11.40;99.90;;;;;;5009991;28;20429;-40
2021/10/21 08:56:04;;;;;;;8.50;1.97;;;11.60;99.90;;;;;;5025960;28;20473;-39
2021/10/21 08:58:30;;;;;;;5.63;1.90;;;11.30;99.90;;;;;;5025951;28;20504;-40
2021/10/21 09:01:01;;;;;;;4.37;1.73;;;11.40;99.90;;;;;;5026526;28;20528;-40
2021/10/21 09:08:50;;;;;;;9.63;2.40;;;11.40;99.90;;;;;;5013427;28;20534;-41
2021/10/21 09:11:21;;;;;;;6.10;1.73;;;11.60;99.90;;;;;;5025581;28;20902;-41
2021/10/21 09:13:47;;;;;;;4.97;2.10;;;11.80;99.90;;;;;;5025357;28;20206;-42
2021/10/21 09:16:18;;;;;;;7.10;2.10;;;12.00;99.90;;;;;;5024599;28;20927;-40
2021/10/21 09:18:46;;;;;;;9.47;2.30;;;12.20;99.90;;;;;;5012397;28;20452;-40
2021/10/21 09:21:32;;;;;;;5.03;2.33;;;12.60;99.90;;;;;;5026414;28;20430;-39
2021/10/21 09:24:18;;;;;;;4.07;2.13;;;12.80;99.90;;;;;;5017571;28;20433;-40
2021/10/21 09:27:02;;;;;;;7.87;2.07;;;12.90;99.90;;;;;;5024712;28;20444;-40
2021/10/21 09:29:29;;;;;;;7.63;2.03;;;13.10;99.90;;;;;;5025535;28;20470;-39
2021/10/21 09:32:08;;;;;;;5.23;2.03;;;13.00;99.90;;;;;;5025961;28;20420;-40
2021/10/21 09:34:46;;;;;;;6.27;2.07;;;13.10;99.90;;;;;;5025160;28;21033;-40
2021/10/21 09:37:14;;;;;;;8.90;2.97;;;13.10;99.90;;;;;;5022830;28;20496;-40
2021/10/21 09:39:46;;;;;;;5.50;2.17;;;13.30;99.90;;;;;;5020719;28;20843;-41
2021/10/21 09:42:13;;;;;;;5.50;1.97;;;13.40;99.90;;;;;;5025637;28;20520;-39
2021/10/21 09:44:40;;;;;;;3.80;2.50;;;13.50;99.90;;;;;;5012000;28;20483;-41
2021/10/21 09:47:20;;;;;;;3.53;1.67;;;13.60;99.90;;;;;;5025665;28;20425;-39
2021/10/21 09:49:52;;;;;;;5.60;2.00;;;13.50;99.90;;;;;;5025546;28;20417;-40
2021/10/21 09:52:22;;;;;;;7.00;2.80;;;13.50;99.90;;;;;;5020830;28;20519;-40
2021/10/21 09:54:49;;;;;;;10.30;1.70;;;13.40;99.90;;;;;;5017846;28;20476;-40
2021/10/21 09:57:18;;;;;;;3.50;2.20;;;13.30;99.90;;;;;;5025999;28;20538;-40
2021/10/21 10:00:03;;;;;;;3.40;1.90;;;13.30;99.90;;;;;;5028962;28;20460;-41
2021/10/21 10:02:32;;;;;;;4.10;2.03;;;13.30;99.90;;;;;;5029450;28;20460;-39
2021/10/21 10:05:01;;;;;;;3.80;2.17;;;13.50;99.90;;;;;;5028463;28;20491;-40
2021/10/21 10:07:28;;;;;;;7.93;2.27;;;13.60;99.90;;;;;;5025186;28;20492;-39
2021/10/21 10:10:01;;;;;;;3.77;2.70;;;13.40;99.90;;;;;;5022816;28;20421;-41
2021/10/21 10:12:32;;;;;;;3.73;3.03;;;13.50;99.90;;;;;;5029285;28;20433;-40
2021/10/21 10:14:58;;;;;;;7.30;3.07;;;13.60;99.90;;;;;;5027223;28;20475;-42
2021/10/21 10:17:26;;;;;;;2.37;2.00;;;13.60;99.90;;;;;;5029397;28;20859;-43
2021/10/21 10:19:53;;;;;;;10.10;2.60;;;13.60;99.90;;;;;;5029269;28;20779;-40
2021/10/21 10:22:29;;;;;;;5.20;2.60;;;13.40;99.90;;;;;;5032078;28;20513;-40
2021/10/21 10:24:57;;;;;;;4.63;2.50;;;13.20;99.90;;;;;;5023417;28;20729;-40
2021/10/21 10:27:27;;;;;;;6.10;2.40;;;13.00;99.90;;;;;;5029148;28;20530;-40
2021/10/21 10:29:53;;;;;;;9.10;2.80;;;12.80;99.90;;;;;;5028715;28;20429;-41
2021/10/21 10:32:42;;;;;;;6.03;2.57;;;12.80;99.90;;;;;;5029030;28;20457;-40
2021/10/21 10:35:31;;;;;;;4.80;2.40;;;12.70;99.90;;;;;;5028595;28;20492;-40
2021/10/21 10:38:00;;;;;;;4.60;2.30;;;12.60;99.90;;;;;;5022213;28;20815;-40
2021/10/21 10:40:43;;;;;;;4.07;2.30;;;12.60;99.90;;;;;;5026876;28;20413;-40
2021/10/21 10:43:11;;;;;;;3.70;1.47;;;12.40;99.90;;;;;;5023383;28;20696;-40
2021/10/21 10:45:44;;;;;;;28.50;3.67;;;12.40;99.90;;;;;;5028301;28;20494;-41
2021/10/21 10:48:12;;;;;;;3.17;1.30;;;12.30;99.90;;;;;;5028553;28;20535;-40
2021/10/21 10:50:43;;;;;;;2.83;1.37;;;12.20;99.90;;;;;;5028419;28;20483;-40
2021/10/21 10:53:10;;;;;;;2.80;1.53;;;12.10;99.90;;;;;;5019381;28;20521;-40
2021/10/21 10:55:40;;;;;;;1.70;1.13;;;12.10;99.90;;;;;;5023790;28;20465;-42
2021/10/21 10:58:23;;;;;;;2.00;1.00;;;12.20;99.90;;;;;;5027929;28;20794;-39
2021/10/21 11:00:55;;;;;;;1.73;1.00;;;12.00;99.90;;;;;;5028327;28;20425;-41
2021/10/21 11:03:35;;;;;;;4.40;1.27;;;12.00;99.90;;;;;;5027439;28;20982;-45
2021/10/21 11:06:03;;;;;;;4.80;1.50;;;11.90;99.90;;;;;;5028387;28;20611;-40
2021/10/21 11:08:47;;;;;;;2.20;1.00;;;12.10;99.90;;;;;;5017244;28;20462;-40
2021/10/21 11:11:48;;;;;;;5.80;1.10;;;11.90;99.90;;;;;;5024758;28;20447;-40
2021/10/21 11:14:20;;;;;;;3.73;1.47;;;11.70;99.90;;;;;;5016633;28;20511;-40
2021/10/21 11:16:52;;;;;;;4.73;1.30;;;11.90;99.90;;;;;;5027297;28;20808;-41
2021/10/21 11:19:42;;;;;;;4.13;1.50;;;11.90;99.90;;;;;;5027918;28;20578;-41
2021/10/21 11:22:09;;;;;;;2.97;1.60;;;11.80;99.90;;;;;;5015273;28;20891;-41
2021/10/21 11:24:49;;;;;;;2.37;1.20;;;11.80;99.90;;;;;;5012464;28;20448;-40
2021/10/21 11:27:25;;;;;;;2.80;1.10;;;11.90;99.90;;;;;;5027484;28;20947;-40
2021/10/21 11:29:53;;;;;;;2.53;1.33;;;12.00;99.90;;;;;;5027968;28;20429;-40
2021/10/21 11:32:20;;;;;;;6.53;1.33;;;12.00;99.90;;;;;;5027789;28;20515;-40
2021/10/21 11:34:51;;;;;;;4.80;1.40;;;12.00;99.90;;;;;;5026871;28;20956;-40
2021/10/21 11:37:37;;;;;;;5.10;1.43;;;12.00;99.90;;;;;;5027806;28;20457;-40
2021/10/21 11:40:05;;;;;;;2.90;1.30;;;12.00;99.90;;;;;;5017381;28;20936;-42
2021/10/21 11:42:30;;;;;;;2.83;1.20;;;12.00;99.90;;;;;;5027649;28;20520;-40
2021/10/21 11:45:05;;;;;;;6.57;1.57;;;12.20;99.90;;;;;;5026703;28;20936;-42
2021/10/21 11:47:33;;;;;;;4.20;1.30;;;12.30;99.90;;;;;;5027363;28;20861;-46
2021/10/21 11:49:58;;;;;;;3.33;1.23;;;12.30;99.90;;;;;;5027261;28;20429;-42
2021/10/21 11:52:42;;;;;;;2.87;0.90;;;12.40;99.90;;;;;;5025897;28;20435;-41
2021/10/21 11:55:26;;;;;;;3.00;1.27;;;12.30;99.90;;;;;;5021928;28;20638;-40
2021/10/21 11:57:53;;;;;;;3.23;1.00;;;12.50;99.90;;;;;;5033633;28;20870;-40
2021/10/21 12:00:24;;;;;;;2.60;0.97;;;12.30;99.90;;;;;;5026787;28;20495;-40
2021/10/21 12:02:52;;;;;;;3.00;1.00;;;12.30;99.90;;;;;;5026440;28;20413;-40
2021/10/21 12:05:33;;;;;;;1.97;1.20;;;12.30;99.90;;;;;;5012137;28;20438;-41
2021/10/21 12:08:01;;;;;;;1.50;1.13;;;12.30;99.90;;;;;;5022468;28;21078;-40
2021/10/21 12:10:41;;;;;;;1.10;0.87;;;12.30;99.90;;;;;;5020698;28;20432;-40
2021/10/21 12:13:08;;;;;;;2.10;1.00;;;12.30;99.90;;;;;;5025886;28;20490;-41
2021/10/21 12:15:36;;;;;;;3.13;1.23;;;12.40;99.90;;;;;;5025756;28;20812;-40
2021/10/21 12:18:08;;;;;;;3.10;1.17;;;12.40;99.90;;;;;;5027133;28;21014;-41
2021/10/21 12:20:39;;;;;;;3.13;1.17;;;12.50;99.90;;;;;;5032044;28;20918;-40
2021/10/21 12:23:13;;;;;;;3.07;1.07;;;12.60;99.90;;;;;;5040061;28;20533;-41
2021/10/21 12:25:39;;;;;;;1.00;0.70;;;12.70;99.90;;;;;;5017980;28;20413;-40
2021/10/21 12:28:05;;;;;;;3.23;1.00;;;12.80;99.90;;;;;;5026626;28;20412;-40
2021/10/21 12:30:35;;;;;;;3.60;1.30;;;12.70;99.90;;;;;;5026998;28;20669;-40
2021/10/21 12:33:10;;;;;;;1.70;0.90;;;12.70;99.90;;;;;;5026232;28;20225;-40
2021/10/21 12:35:51;;;;;;;1.33;0.70;;;12.50;99.90;;;;;;5026470;28;20502;-39
2021/10/21 12:38:17;;;;;;;1.93;0.70;;;12.30;99.90;;;;;;5023014;28;20449;-40
2021/10/21 12:40:42;;;;;;;1.57;0.50;;;12.00;99.90;;;;;;5021222;28;20483;-40
2021/10/21 12:43:17;;;;;;;0.50;0.50;;;11.70;99.90;;;;;;5021893;28;20201;-40
2021/10/21 12:45:43;;;;;;;0.50;0.40;;;11.60;99.90;;;;;;5026198;28;20202;-40
2021/10/21 12:48:23;;;;;;;1.10;0.60;;;11.50;99.90;;;;;;5026158;28;20417;-41
2021/10/21 12:50:50;;;;;;;2.30;0.53;;;11.40;99.90;;;;;;5025838;28;20421;-40
2021/10/21 12:53:17;;;;;;;1.20;0.53;;;11.30;99.90;;;;;;5023819;28;20425;-43
2021/10/21 12:55:43;;;;;;;1.67;0.60;;;11.20;99.90;;;;;;5020963;28;20504;-40